Airfield :
LOGIN :

Register | Disclaimer

   EN    FR    IT 

 










Legend :    VFR   Marginal VFR   IFR   Intensive IFR   Very Intensive IFR
Visi :
Ceiling :
>= 8 km
>= 3000ft
5 to 8 km
1000 to 3000 ft
1500m to 5 km
500 to 1000 ft
800 to 1500m
200 to 500 ft
< 800m
< 200 ft
Symbols :   Thunderstorms  Fog  Heavy snow  Heavy precipitations  Wind > 20 kt
SIGMETs :     Misc.  Thunderstorms  Icing  Turbulence  Mountain Waves  Volcanic Ashes






- Airport Elevation : 59 ft
- IATA code : TSF


LIPH - Treviso

CURRENT METAR :
  • 231350Z 06015KT 040V100 9999 FEW030 SCT060 13/05 Q1007

EXPIRED METARs :
  • 231320Z 07019KT 9999 FEW030 BKN060 13/05 Q1007
  • 231250Z 07015KT 9999 FEW040 SCT070 13/06 Q1007
  • 231220Z 07013KT 9999 FEW060 13/06 Q1008
  • 231150Z 06010KT 9999 FEW020 BKN040 11/07 Q1008
  • 231120Z 05009KT 020V080 9999 -RA BKN040 10/07 Q1008
  • 231050Z 06013KT 9999 -RA BKN050 10/06 Q1008
  • 231020Z 07017KT 9999 -RA BKN020 10/07 Q1008
  • 230920Z 06017KT 9999 FEW020 BKN050 11/06 Q1008
  • 230850Z 06017KT 9999 -RA BKN035 11/05 Q1008

TAF TAF LIPH
Valid from the 23 at 12:00 until the 24 at 12:00 UTC


231100Z 2312/2412 09014KT 9999 SCT030
PROB40
TEMPO 2312/2318 RA
BECMG 2316/2318 VRB05KT
TEMPO 2403/2409 RA



MET'MAP, your aeronautical weather chart ! - Copyright ORBIFLY December 2007 - Disclaimer

ORBIFLY MET'MAP TEAM :

Programming & Development : Alexandra Zaïnal
Original concept : Baudouin d'Aumeries
Technical & hardware support : Manuel Goepfert
Assistance : Marc-Olivier Méhu




SOURCES & CREDITS :

   NOAA